sensor_id;sensor_type;location;lat;lon;timestamp;pressure;altitude;pressure_sealevel;temperature;humidity
16544;BME280;8384;47.996;7.786;2023-08-08T00:02:02;99034.19;;;14.19;75.21
16544;BME280;8384;47.996;7.786;2023-08-08T00:04:27;99030.66;;;14.03;75.76
16544;BME280;8384;47.996;7.786;2023-08-08T00:06:52;99030.38;;;14.09;75.27
16544;BME280;8384;47.996;7.786;2023-08-08T00:09:18;99037.25;;;13.97;76.04
16544;BME280;8384;47.996;7.786;2023-08-08T00:11:43;99033.41;;;13.87;76.46
16544;BME280;8384;47.996;7.786;2023-08-08T00:14:08;99015.31;;;13.76;76.64
16544;BME280;8384;47.996;7.786;2023-08-08T00:16:33;98984.53;;;13.43;77.07
16544;BME280;8384;47.996;7.786;2023-08-08T00:18:59;99042.75;;;13.81;76.66
16544;BME280;8384;47.996;7.786;2023-08-08T00:21:24;99022.97;;;13.63;77.11
16544;BME280;8384;47.996;7.786;2023-08-08T00:23:49;99032.59;;;13.61;77.19
16544;BME280;8384;47.996;7.786;2023-08-08T00:26:15;99022.41;;;13.51;77.71
16544;BME280;8384;47.996;7.786;2023-08-08T00:28:40;99030.41;;;13.63;77.20
16544;BME280;8384;47.996;7.786;2023-08-08T00:31:05;99033.41;;;13.46;77.95
16544;BME280;8384;47.996;7.786;2023-08-08T00:33:30;99030.38;;;13.42;78.30
16544;BME280;8384;47.996;7.786;2023-08-08T00:35:56;99015.53;;;13.28;78.52
16544;BME280;8384;47.996;7.786;2023-08-08T00:38:21;99013.03;;;13.16;78.77
16544;BME280;8384;47.996;7.786;2023-08-08T00:40:46;99027.03;;;13.25;79.03
16544;BME280;8384;47.996;7.786;2023-08-08T00:43:12;99025.09;;;13.15;78.83
16544;BME280;8384;47.996;7.786;2023-08-08T00:45:37;99022.34;;;13.15;79.65
16544;BME280;8384;47.996;7.786;2023-08-08T00:48:04;99018.75;;;12.99;80.10
16544;BME280;8384;47.996;7.786;2023-08-08T00:50:29;99020.66;;;12.98;80.38
16544;BME280;8384;47.996;7.786;2023-08-08T00:52:55;99017.97;;;13.19;80.24
16544;BME280;8384;47.996;7.786;2023-08-08T00:55:21;99015.53;;;13.28;78.70
16544;BME280;8384;47.996;7.786;2023-08-08T00:57:46;99010.84;;;13.18;78.78
16544;BME280;8384;47.996;7.786;2023-08-08T01:00:12;99011.13;;;13.27;78.99
16544;BME280;8384;47.996;7.786;2023-08-08T01:02:37;99021.28;;;13.21;78.99
16544;BME280;8384;47.996;7.786;2023-08-08T01:05:03;99014.69;;;13.32;78.81
16544;BME280;8384;47.996;7.786;2023-08-08T01:07:47;99015.50;;;13.07;79.48
16544;BME280;8384;47.996;7.786;2023-08-08T01:10:24;98999.03;;;13.07;79.95
16544;BME280;8384;47.996;7.786;2023-08-08T01:12:54;98997.06;;;12.92;80.42
16544;BME280;8384;47.996;7.786;2023-08-08T01:15:21;99008.59;;;12.99;81.42
16544;BME280;8384;47.996;7.786;2023-08-08T01:17:47;99000.63;;;12.98;80.35
16544;BME280;8384;47.996;7.786;2023-08-08T01:20:14;99005.88;;;13.04;80.42
16544;BME280;8384;47.996;7.786;2023-08-08T01:25:29;99002.84;;;12.96;80.54
16544;BME280;8384;47.996;7.786;2023-08-08T01:27:55;99000.63;;;12.93;80.16
16544;BME280;8384;47.996;7.786;2023-08-08T01:30:20;98993.47;;;12.92;80.44
16544;BME280;8384;47.996;7.786;2023-08-08T01:32:46;99002.84;;;12.96;80.21
16544;BME280;8384;47.996;7.786;2023-08-08T01:35:11;99000.66;;;13.03;80.12
16544;BME280;8384;47.996;7.786;2023-08-08T01:37:48;99002.56;;;12.97;80.30
16544;BME280;8384;47.996;7.786;2023-08-08T01:40:16;99005.84;;;12.94;81.01
16544;BME280;8384;47.996;7.786;2023-08-08T01:42:45;98997.88;;;12.82;80.96
16544;BME280;8384;47.996;7.786;2023-08-08T01:45:11;98989.34;;;12.79;80.73
16544;BME280;8384;47.996;7.786;2023-08-08T01:47:37;98995.38;;;12.81;80.61
16544;BME280;8384;47.996;7.786;2023-08-08T01:50:02;98978.59;;;12.67;81.09
16544;BME280;8384;47.996;7.786;2023-08-08T01:52:28;98986.59;;;12.79;80.85
16544;BME280;8384;47.996;7.786;2023-08-08T01:54:53;98991.03;;;12.90;80.30
16544;BME280;8384;47.996;7.786;2023-08-08T01:57:18;98979.47;;;12.78;80.47
16544;BME280;8384;47.996;7.786;2023-08-08T01:59:46;98989.63;;;12.77;80.91
16544;BME280;8384;47.996;7.786;2023-08-08T02:02:12;98973.91;;;12.52;81.83
16544;BME280;8384;47.996;7.786;2023-08-08T02:04:37;98994.50;;;12.65;81.21
16544;BME280;8384;47.996;7.786;2023-08-08T02:07:02;98980.53;;;12.61;81.31
16544;BME280;8384;47.996;7.786;2023-08-08T02:09:28;98975.84;;;12.62;80.63
16544;BME280;8384;47.996;7.786;2023-08-08T02:11:53;98985.72;;;12.57;81.01
16544;BME280;8384;47.996;7.786;2023-08-08T02:14:19;98977.78;;;12.61;80.63
16544;BME280;8384;47.996;7.786;2023-08-08T02:16:44;98976.09;;;12.55;80.33
16544;BME280;8384;47.996;7.786;2023-08-08T02:19:10;98983.28;;;12.66;80.48
16544;BME280;8384;47.996;7.786;2023-08-08T02:21:35;98978.28;;;12.53;80.85
16544;BME280;8384;47.996;7.786;2023-08-08T02:24:00;98976.31;;;12.38;81.64
16544;BME280;8384;47.996;7.786;2023-08-08T02:26:25;98989.16;;;12.32;82.18
16544;BME280;8384;47.996;7.786;2023-08-08T02:28:51;98991.63;;;12.34;82.00
16544;BME280;8384;47.996;7.786;2023-08-08T02:31:16;98995.72;;;12.26;82.31
16544;BME280;8384;47.996;7.786;2023-08-08T02:33:49;98986.59;;;12.10;82.93
16544;BME280;8384;47.996;7.786;2023-08-08T02:36:18;98983.28;;;12.03;83.32
16544;BME280;8384;47.996;7.786;2023-08-08T02:38:43;99001.25;;;11.93;84.34
16544;BME280;8384;47.996;7.786;2023-08-08T02:41:09;98999.25;;;11.78;85.57
16544;BME280;8384;47.996;7.786;2023-08-08T02:43:34;99001.16;;;11.78;84.90
16544;BME280;8384;47.996;7.786;2023-08-08T02:45:59;98988.66;;;11.92;84.15
16544;BME280;8384;47.996;7.786;2023-08-08T02:48:26;98992.94;;;12.21;82.85
16544;BME280;8384;47.996;7.786;2023-08-08T02:50:51;98992.94;;;12.21;82.36
16544;BME280;8384;47.996;7.786;2023-08-08T02:53:16;98987.91;;;12.02;82.67
16544;BME280;8384;47.996;7.786;2023-08-08T02:55:42;98989.34;;;12.15;82.93
16544;BME280;8384;47.996;7.786;2023-08-08T02:58:07;98978.25;;;11.94;82.90
16544;BME280;8384;47.996;7.786;2023-08-08T03:00:32;98986.59;;;12.10;82.37
16544;BME280;8384;47.996;7.786;2023-08-08T03:02:58;98984.84;;;11.98;83.18
16544;BME280;8384;47.996;7.786;2023-08-08T03:05:23;98987.47;;;12.15;81.78
16544;BME280;8384;47.996;7.786;2023-08-08T03:07:48;98990.09;;;12.00;82.49
16544;BME280;8384;47.996;7.786;2023-08-08T03:10:14;98987.84;;;11.97;82.69
16544;BME280;8384;47.996;7.786;2023-08-08T03:12:39;98970.84;;;11.90;82.94
16544;BME280;8384;47.996;7.786;2023-08-08T03:15:05;98978.03;;;12.01;82.81
16544;BME280;8384;47.996;7.786;2023-08-08T03:17:30;98973.59;;;11.95;82.74
16544;BME280;8384;47.996;7.786;2023-08-08T03:19:56;98976.00;;;11.86;83.37
16544;BME280;8384;47.996;7.786;2023-08-08T03:22:21;98979.31;;;11.88;83.73
16544;BME280;8384;47.996;7.786;2023-08-08T03:24:46;98984.34;;;11.31;86.72
16544;BME280;8384;47.996;7.786;2023-08-08T03:27:12;98976.72;;;11.33;87.43
16544;BME280;8384;47.996;7.786;2023-08-08T03:29:37;98966.84;;;11.32;87.08
16544;BME280;8384;47.996;7.786;2023-08-08T03:32:03;98983.09;;;11.44;86.99
16544;BME280;8384;47.996;7.786;2023-08-08T03:34:29;98974.06;;;11.44;86.80
16544;BME280;8384;47.996;7.786;2023-08-08T03:36:55;98987.28;;;11.52;86.55
16544;BME280;8384;47.996;7.786;2023-08-08T03:39:20;98980.09;;;11.46;86.68
16544;BME280;8384;47.996;7.786;2023-08-08T03:41:45;98996.72;;;11.39;86.66
16544;BME280;8384;47.996;7.786;2023-08-08T03:44:12;98998.00;;;11.59;85.80
16544;BME280;8384;47.996;7.786;2023-08-08T03:46:37;98997.72;;;11.60;85.63
16544;BME280;8384;47.996;7.786;2023-08-08T03:49:02;98996.41;;;11.68;84.56
16544;BME280;8384;47.996;7.786;2023-08-08T03:51:28;98974.06;;;11.44;84.71
16544;BME280;8384;47.996;7.786;2023-08-08T03:53:53;98994.38;;;11.53;85.45
16544;BME280;8384;47.996;7.786;2023-08-08T03:56:19;98974.28;;;11.37;86.06
16544;BME280;8384;47.996;7.786;2023-08-08T03:58:44;98979.78;;;11.42;87.19
16544;BME280;8384;47.996;7.786;2023-08-08T04:01:09;98976.13;;;11.31;87.92
16544;BME280;8384;47.996;7.786;2023-08-08T04:03:35;98988.75;;;11.32;88.43
16544;BME280;8384;47.996;7.786;2023-08-08T04:06:01;98976.25;;;11.14;89.37
16544;BME280;8384;47.996;7.786;2023-08-08T04:08:27;99000.69;;;11.21;89.20
16544;BME280;8384;47.996;7.786;2023-08-08T04:10:52;98993.41;;;11.04;89.96
16544;BME280;8384;47.996;7.786;2023-08-08T04:13:17;98999.31;;;10.91;91.58
16544;BME280;8384;47.996;7.786;2023-08-08T04:15:42;98996.91;;;10.72;92.29
16544;BME280;8384;47.996;7.786;2023-08-08T04:18:08;99009.00;;;10.54;94.62
16544;BME280;8384;47.996;7.786;2023-08-08T04:20:33;99003.16;;;10.45;95.39
16544;BME280;8384;47.996;7.786;2023-08-08T04:22:59;99005.38;;;10.09;97.10
16544;BME280;8384;47.996;7.786;2023-08-08T04:25:26;99000.81;;;10.15;98.60
16544;BME280;8384;47.996;7.786;2023-08-08T04:27:52;99007.34;;;10.14;98.50
16544;BME280;8384;47.996;7.786;2023-08-08T04:30:17;98993.34;;;10.27;97.97
16544;BME280;8384;47.996;7.786;2023-08-08T04:32:42;98995.00;;;10.50;95.85
16544;BME280;8384;47.996;7.786;2023-08-08T04:35:08;99005.44;;;10.54;95.57
16544;BME280;8384;47.996;7.786;2023-08-08T04:37:33;99002.72;;;10.36;96.89
16544;BME280;8384;47.996;7.786;2023-08-08T04:39:58;99004.13;;;10.56;96.74
16544;BME280;8384;47.996;7.786;2023-08-08T04:42:24;99005.13;;;10.50;96.08
16544;BME280;8384;47.996;7.786;2023-08-08T04:44:49;98998.69;;;10.61;95.96
16544;BME280;8384;47.996;7.786;2023-08-08T04:47:14;98980.56;;;10.33;96.93
16544;BME280;8384;47.996;7.786;2023-08-08T04:49:39;99003.06;;;10.62;97.13
16544;BME280;8384;47.996;7.786;2023-08-08T04:52:05;99001.97;;;10.19;98.27
16544;BME280;8384;47.996;7.786;2023-08-08T04:54:30;99007.47;;;10.02;100.00
16544;BME280;8384;47.996;7.786;2023-08-08T04:56:56;99002.34;;;10.28;100.00
16544;BME280;8384;47.996;7.786;2023-08-08T04:59:21;99012.94;;;10.41;99.63
16544;BME280;8384;47.996;7.786;2023-08-08T05:01:46;99003.72;;;10.47;99.05
16544;BME280;8384;47.996;7.786;2023-08-08T05:04:11;99014.91;;;10.46;99.37
16544;BME280;8384;47.996;7.786;2023-08-08T05:06:37;99020.75;;;10.55;99.37
16544;BME280;8384;47.996;7.786;2023-08-08T05:09:02;98991.59;;;10.21;99.94
16544;BME280;8384;47.996;7.786;2023-08-08T05:11:28;99016.88;;;10.33;100.00
16544;BME280;8384;47.996;7.786;2023-08-08T05:13:53;99002.09;;;10.29;100.00
16544;BME280;8384;47.996;7.786;2023-08-08T05:16:18;99018.44;;;10.46;99.83
16544;BME280;8384;47.996;7.786;2023-08-08T05:18:44;98998.97;;;10.20;100.00
16544;BME280;8384;47.996;7.786;2023-08-08T05:21:10;99011.50;;;10.16;100.00
16544;BME280;8384;47.996;7.786;2023-08-08T05:23:35;98985.88;;;10.23;100.00
16544;BME280;8384;47.996;7.786;2023-08-08T05:26:01;99005.13;;;10.72;100.00
16544;BME280;8384;47.996;7.786;2023-08-08T05:28:26;98976.28;;;10.87;99.23
16544;BME280;8384;47.996;7.786;2023-08-08T05:30:51;98992.13;;;11.12;98.96
16544;BME280;8384;47.996;7.786;2023-08-08T05:33:16;98999.91;;;11.25;98.63
16544;BME280;8384;47.996;7.786;2023-08-08T05:35:42;98995.88;;;11.33;97.64
16544;BME280;8384;47.996;7.786;2023-08-08T05:38:07;99003.38;;;11.48;97.77
16544;BME280;8384;47.996;7.786;2023-08-08T05:40:35;98997.16;;;11.58;98.07
16544;BME280;8384;47.996;7.786;2023-08-08T05:43:02;99017.41;;;11.57;97.53
16544;BME280;8384;47.996;7.786;2023-08-08T05:45:27;99004.09;;;11.71;96.93
16544;BME280;8384;47.996;7.786;2023-08-08T05:47:52;99007.38;;;12.06;95.52
16544;BME280;8384;47.996;7.786;2023-08-08T05:50:18;99002.63;;;12.39;93.78
16544;BME280;8384;47.996;7.786;2023-08-08T05:52:44;99006.25;;;12.55;91.59
16544;BME280;8384;47.996;7.786;2023-08-08T05:55:09;99001.53;;;12.40;91.84
16544;BME280;8384;47.996;7.786;2023-08-08T05:57:34;98993.59;;;12.38;92.76
16544;BME280;8384;47.996;7.786;2023-08-08T06:00:00;99009.63;;;12.67;91.85
16544;BME280;8384;47.996;7.786;2023-08-08T06:02:25;99014.03;;;12.84;91.00
16544;BME280;8384;47.996;7.786;2023-08-08T06:04:50;99002.22;;;12.73;90.66
16544;BME280;8384;47.996;7.786;2023-08-08T06:07:16;98984.44;;;13.01;88.99
16544;BME280;8384;47.996;7.786;2023-08-08T06:09:41;99017.44;;;13.32;87.03
16544;BME280;8384;47.996;7.786;2023-08-08T06:12:06;98994.09;;;13.25;86.69
16544;BME280;8384;47.996;7.786;2023-08-08T06:14:32;99010.63;;;13.61;83.79
16544;BME280;8384;47.996;7.786;2023-08-08T06:16:57;99001.78;;;13.95;80.15
16544;BME280;8384;47.996;7.786;2023-08-08T06:19:23;99004.53;;;14.16;78.09
16544;BME280;8384;47.996;7.786;2023-08-08T06:21:48;99002.50;;;14.47;76.42
16544;BME280;8384;47.996;7.786;2023-08-08T06:24:14;99004.34;;;14.62;74.37
16544;BME280;8384;47.996;7.786;2023-08-08T06:26:39;98995.56;;;14.60;73.90
16544;BME280;8384;47.996;7.786;2023-08-08T06:29:04;99006.25;;;14.67;74.46
16544;BME280;8384;47.996;7.786;2023-08-08T06:31:30;99005.91;;;14.89;73.55
16544;BME280;8384;47.996;7.786;2023-08-08T06:33:55;99009.09;;;15.07;73.21
16544;BME280;8384;47.996;7.786;2023-08-08T06:36:20;98990.75;;;14.92;73.54
16544;BME280;8384;47.996;7.786;2023-08-08T06:38:46;98990.84;;;15.21;71.98
16544;BME280;8384;47.996;7.786;2023-08-08T06:41:11;99010.31;;;15.35;70.66
16544;BME280;8384;47.996;7.786;2023-08-08T06:43:36;99009.59;;;15.54;69.45
16544;BME280;8384;47.996;7.786;2023-08-08T06:46:01;99009.13;;;15.41;69.62
16544;BME280;8384;47.996;7.786;2023-08-08T06:48:27;99013.66;;;15.62;69.46
16544;BME280;8384;47.996;7.786;2023-08-08T06:50:52;99016.19;;;15.93;66.15
16544;BME280;8384;47.996;7.786;2023-08-08T06:53:18;99006.69;;;16.04;68.52
16544;BME280;8384;47.996;7.786;2023-08-08T06:55:43;98995.09;;;16.07;69.49
16544;BME280;8384;47.996;7.786;2023-08-08T06:58:08;99014.06;;;16.14;70.56
16544;BME280;8384;47.996;7.786;2023-08-08T07:00:33;99009.13;;;16.11;71.08
16544;BME280;8384;47.996;7.786;2023-08-08T07:02:59;99010.81;;;16.55;67.16
16544;BME280;8384;47.996;7.786;2023-08-08T07:05:24;99013.16;;;16.67;65.74
16544;BME280;8384;47.996;7.786;2023-08-08T07:07:51;98998.88;;;16.84;64.37
16544;BME280;8384;47.996;7.786;2023-08-08T07:10:17;99016.81;;;17.06;63.48
16544;BME280;8384;47.996;7.786;2023-08-08T07:12:43;99022.44;;;16.76;64.92
16544;BME280;8384;47.996;7.786;2023-08-08T07:15:09;99011.84;;;16.84;65.91
16544;BME280;8384;47.996;7.786;2023-08-08T07:17:34;98997.75;;;16.85;65.85
16544;BME280;8384;47.996;7.786;2023-08-08T07:20:00;99010.38;;;16.91;66.66
16544;BME280;8384;47.996;7.786;2023-08-08T07:22:25;99014.81;;;17.12;65.21
16544;BME280;8384;47.996;7.786;2023-08-08T07:24:50;99009.50;;;16.72;67.03
16544;BME280;8384;47.996;7.786;2023-08-08T07:27:16;99003.09;;;16.57;69.84
16544;BME280;8384;47.996;7.786;2023-08-08T07:29:41;99001.75;;;17.17;69.94
16544;BME280;8384;47.996;7.786;2023-08-08T07:32:06;99002.84;;;17.35;68.83
16544;BME280;8384;47.996;7.786;2023-08-08T07:34:32;98980.19;;;17.19;68.20
16544;BME280;8384;47.996;7.786;2023-08-08T07:36:58;99001.09;;;17.06;68.08
16544;BME280;8384;47.996;7.786;2023-08-08T07:39:23;99007.63;;;17.11;68.61
16544;BME280;8384;47.996;7.786;2023-08-08T07:41:49;99006.75;;;17.34;66.85
16544;BME280;8384;47.996;7.786;2023-08-08T07:44:14;99004.34;;;17.08;69.15
16544;BME280;8384;47.996;7.786;2023-08-08T07:46:39;98999.00;;;16.98;70.39
16544;BME280;8384;47.996;7.786;2023-08-08T07:49:05;99006.13;;;17.37;67.55
16544;BME280;8384;47.996;7.786;2023-08-08T07:51:31;99009.56;;;17.48;67.28
16544;BME280;8384;47.996;7.786;2023-08-08T07:53:58;99005.59;;;17.54;66.63
16544;BME280;8384;47.996;7.786;2023-08-08T07:56:23;99010.56;;;17.72;64.76
16544;BME280;8384;47.996;7.786;2023-08-08T07:58:49;99007.47;;;17.59;65.05
16544;BME280;8384;47.996;7.786;2023-08-08T08:01:14;98993.69;;;17.40;66.29
16544;BME280;8384;47.996;7.786;2023-08-08T08:03:40;99011.25;;;17.96;65.27
16544;BME280;8384;47.996;7.786;2023-08-08T08:06:05;99005.72;;;17.96;64.22
16544;BME280;8384;47.996;7.786;2023-08-08T08:08:30;98985.81;;;18.27;62.88
16544;BME280;8384;47.996;7.786;2023-08-08T08:10:55;98963.09;;;17.97;60.99
16544;BME280;8384;47.996;7.786;2023-08-08T08:13:21;98996.03;;;17.99;64.10
16544;BME280;8384;47.996;7.786;2023-08-08T08:15:46;98994.34;;;17.84;64.28
16544;BME280;8384;47.996;7.786;2023-08-08T08:18:11;98986.63;;;18.14;63.88
16544;BME280;8384;47.996;7.786;2023-08-08T08:20:39;98976.28;;;18.06;62.82
16544;BME280;8384;47.996;7.786;2023-08-08T08:23:04;98977.88;;;18.91;58.13
16544;BME280;8384;47.996;7.786;2023-08-08T08:25:30;98987.84;;;19.28;56.95
16544;BME280;8384;47.996;7.786;2023-08-08T08:27:57;98994.69;;;19.31;56.08
16544;BME280;8384;47.996;7.786;2023-08-08T08:30:22;98993.28;;;19.56;57.08
16544;BME280;8384;47.996;7.786;2023-08-08T08:32:50;98992.75;;;20.00;55.05
16544;BME280;8384;47.996;7.786;2023-08-08T08:35:16;98987.19;;;20.40;51.55
16544;BME280;8384;47.996;7.786;2023-08-08T08:37:42;98996.09;;;20.19;49.61
16544;BME280;8384;47.996;7.786;2023-08-08T08:40:07;98984.97;;;20.11;49.90
16544;BME280;8384;47.996;7.786;2023-08-08T08:42:34;98986.91;;;20.50;49.74
16544;BME280;8384;47.996;7.786;2023-08-08T08:45:01;98989.25;;;20.17;49.69
16544;BME280;8384;47.996;7.786;2023-08-08T08:47:30;98973.16;;;19.96;48.27
16544;BME280;8384;47.996;7.786;2023-08-08T08:49:56;98988.00;;;19.77;49.14
16544;BME280;8384;47.996;7.786;2023-08-08T08:52:22;98985.53;;;19.44;47.89
16544;BME280;8384;47.996;7.786;2023-08-08T08:54:49;98976.81;;;19.37;48.59
16544;BME280;8384;47.996;7.786;2023-08-08T08:57:15;98961.31;;;19.59;47.42
16544;BME280;8384;47.996;7.786;2023-08-08T08:59:40;98990.69;;;19.60;47.63
16544;BME280;8384;47.996;7.786;2023-08-08T09:02:05;98989.38;;;19.57;48.66
16544;BME280;8384;47.996;7.786;2023-08-08T09:04:33;98991.66;;;19.87;49.36
16544;BME280;8384;47.996;7.786;2023-08-08T09:07:00;98984.66;;;20.61;47.58
16544;BME280;8384;47.996;7.786;2023-08-08T09:09:26;98987.25;;;20.58;48.30
16544;BME280;8384;47.996;7.786;2023-08-08T09:11:53;98994.31;;;20.64;47.08
16544;BME280;8384;47.996;7.786;2023-08-08T09:14:23;98993.84;;;20.71;45.29
16544;BME280;8384;47.996;7.786;2023-08-08T09:16:49;98984.88;;;20.33;45.93
16544;BME280;8384;47.996;7.786;2023-08-08T09:19:16;98968.38;;;20.77;47.17
16544;BME280;8384;47.996;7.786;2023-08-08T09:21:45;98984.84;;;20.74;44.48
16544;BME280;8384;47.996;7.786;2023-08-08T09:24:11;98974.00;;;20.46;45.45
16544;BME280;8384;47.996;7.786;2023-08-08T09:26:36;98972.09;;;20.73;44.54
16544;BME280;8384;47.996;7.786;2023-08-08T09:29:02;98979.84;;;20.85;46.76
16544;BME280;8384;47.996;7.786;2023-08-08T09:31:29;98969.56;;;21.03;43.72
16544;BME280;8384;47.996;7.786;2023-08-08T09:33:57;98974.00;;;21.12;42.36
16544;BME280;8384;47.996;7.786;2023-08-08T09:36:23;98964.00;;;21.11;43.63
16544;BME280;8384;47.996;7.786;2023-08-08T09:38:49;98961.94;;;20.59;43.84
16544;BME280;8384;47.996;7.786;2023-08-08T09:41:14;98973.91;;;20.68;44.22
16544;BME280;8384;47.996;7.786;2023-08-08T09:43:39;98958.50;;;20.53;44.36
16544;BME280;8384;47.996;7.786;2023-08-08T09:46:05;98973.66;;;20.96;44.07
16544;BME280;8384;47.996;7.786;2023-08-08T09:48:34;98962.19;;;21.07;44.46
16544;BME280;8384;47.996;7.786;2023-08-08T09:51:01;98961.84;;;20.82;42.68
16544;BME280;8384;47.996;7.786;2023-08-08T09:53:27;98963.97;;;21.47;44.05
16544;BME280;8384;47.996;7.786;2023-08-08T09:55:56;98952.22;;;22.15;40.66
16544;BME280;8384;47.996;7.786;2023-08-08T09:58:22;98955.50;;;22.56;40.32
16544;BME280;8384;47.996;7.786;2023-08-08T10:00:50;98957.56;;;22.29;39.78
16544;BME280;8384;47.996;7.786;2023-08-08T10:03:16;98950.06;;;21.73;40.61
16544;BME280;8384;47.996;7.786;2023-08-08T10:05:42;98956.38;;;22.00;39.07
16544;BME280;8384;47.996;7.786;2023-08-08T10:08:08;98930.81;;;21.15;40.85
16544;BME280;8384;47.996;7.786;2023-08-08T10:10:34;98940.28;;;21.49;40.04
16544;BME280;8384;47.996;7.786;2023-08-08T10:12:59;98941.44;;;21.31;39.68
16544;BME280;8384;47.996;7.786;2023-08-08T10:15:26;98942.28;;;22.05;40.12
16544;BME280;8384;47.996;7.786;2023-08-08T10:17:56;98935.63;;;21.80;40.51
16544;BME280;8384;47.996;7.786;2023-08-08T10:20:24;98942.97;;;21.93;39.56
16544;BME280;8384;47.996;7.786;2023-08-08T10:22:52;98930.63;;;21.38;39.37
16544;BME280;8384;47.996;7.786;2023-08-08T10:27:45;98916.63;;;21.91;37.08
16544;BME280;8384;47.996;7.786;2023-08-08T10:30:10;98932.66;;;21.94;40.08
16544;BME280;8384;47.996;7.786;2023-08-08T10:32:44;98938.22;;;21.94;40.91
16544;BME280;8384;47.996;7.786;2023-08-08T10:35:12;98929.81;;;22.71;40.55
16544;BME280;8384;47.996;7.786;2023-08-08T10:37:37;98921.84;;;22.31;40.62
16544;BME280;8384;47.996;7.786;2023-08-08T10:40:04;98935.56;;;22.06;37.89
16544;BME280;8384;47.996;7.786;2023-08-08T10:42:40;98925.47;;;22.61;38.92
16544;BME280;8384;47.996;7.786;2023-08-08T10:45:10;98931.63;;;23.52;36.71
16544;BME280;8384;47.996;7.786;2023-08-08T10:47:37;98922.81;;;22.65;39.52
16544;BME280;8384;47.996;7.786;2023-08-08T10:50:10;98933.47;;;23.48;38.31
16544;BME280;8384;47.996;7.786;2023-08-08T10:55:30;98930.69;;;25.63;34.72
16544;BME280;8384;47.996;7.786;2023-08-08T10:58:10;98930.28;;;26.09;34.19
16544;BME280;8384;47.996;7.786;2023-08-08T11:00:39;98921.41;;;23.01;36.49
16544;BME280;8384;47.996;7.786;2023-08-08T11:03:05;98909.44;;;22.80;38.96
16544;BME280;8384;47.996;7.786;2023-08-08T11:05:32;98927.53;;;23.83;37.64
16544;BME280;8384;47.996;7.786;2023-08-08T11:07:58;98909.50;;;23.80;37.20
16544;BME280;8384;47.996;7.786;2023-08-08T11:10:24;98921.78;;;23.67;37.75
16544;BME280;8384;47.996;7.786;2023-08-08T11:13:03;98922.78;;;23.96;36.68
16544;BME280;8384;47.996;7.786;2023-08-08T11:15:29;98922.84;;;24.33;37.05
16544;BME280;8384;47.996;7.786;2023-08-08T11:17:55;98922.78;;;23.84;36.29
16544;BME280;8384;47.996;7.786;2023-08-08T11:20:22;98927.25;;;23.63;36.76
16544;BME280;8384;47.996;7.786;2023-08-08T11:22:54;98883.34;;;23.05;36.44
16544;BME280;8384;47.996;7.786;2023-08-08T11:25:21;98923.56;;;23.38;35.90
16544;BME280;8384;47.996;7.786;2023-08-08T11:27:51;98908.78;;;22.83;38.39
16544;BME280;8384;47.996;7.786;2023-08-08T11:30:17;98891.16;;;22.91;39.16
16544;BME280;8384;47.996;7.786;2023-08-08T11:32:42;98913.63;;;23.49;40.24
16544;BME280;8384;47.996;7.786;2023-08-08T11:35:08;98912.09;;;23.40;38.38
16544;BME280;8384;47.996;7.786;2023-08-08T11:37:33;98900.88;;;22.85;39.41
16544;BME280;8384;47.996;7.786;2023-08-08T11:39:59;98914.59;;;22.69;39.79
16544;BME280;8384;47.996;7.786;2023-08-08T11:42:25;98893.38;;;23.19;39.96
16544;BME280;8384;47.996;7.786;2023-08-08T11:44:51;98917.59;;;23.27;39.67
16544;BME280;8384;47.996;7.786;2023-08-08T11:47:16;98907.59;;;23.05;36.76
16544;BME280;8384;47.996;7.786;2023-08-08T11:49:42;98908.78;;;22.83;37.99
16544;BME280;8384;47.996;7.786;2023-08-08T11:52:07;98884.28;;;22.88;37.64
16544;BME280;8384;47.996;7.786;2023-08-08T11:54:33;98902.84;;;22.63;37.65
16544;BME280;8384;47.996;7.786;2023-08-08T11:57:01;98896.66;;;22.79;36.82
16544;BME280;8384;47.996;7.786;2023-08-08T11:59:26;98902.72;;;23.02;36.79
16544;BME280;8384;47.996;7.786;2023-08-08T12:01:51;98899.22;;;23.05;37.79
16544;BME280;8384;47.996;7.786;2023-08-08T12:04:20;98900.44;;;22.53;38.08
16544;BME280;8384;47.996;7.786;2023-08-08T12:06:45;98889.66;;;22.42;38.37
16544;BME280;8384;47.996;7.786;2023-08-08T12:09:12;98897.09;;;22.29;38.18
16544;BME280;8384;47.996;7.786;2023-08-08T12:11:39;98908.41;;;22.33;38.61
16544;BME280;8384;47.996;7.786;2023-08-08T12:14:07;98893.69;;;22.84;38.68
16544;BME280;8384;47.996;7.786;2023-08-08T12:16:37;98886.53;;;22.95;38.78
16544;BME280;8384;47.996;7.786;2023-08-08T12:19:07;98873.56;;;23.33;37.43
16544;BME280;8384;47.996;7.786;2023-08-08T12:21:34;98894.47;;;22.84;39.93
16544;BME280;8384;47.996;7.786;2023-08-08T12:23:59;98890.31;;;23.33;38.89
16544;BME280;8384;47.996;7.786;2023-08-08T12:26:25;98887.81;;;23.52;38.92
16544;BME280;8384;47.996;7.786;2023-08-08T12:28:50;98869.97;;;23.32;38.30
16544;BME280;8384;47.996;7.786;2023-08-08T12:31:18;98870.50;;;22.50;38.65
16544;BME280;8384;47.996;7.786;2023-08-08T12:33:43;98870.34;;;22.16;40.48
16544;BME280;8384;47.996;7.786;2023-08-08T12:36:08;98874.50;;;22.01;40.66
16544;BME280;8384;47.996;7.786;2023-08-08T12:38:33;98872.44;;;21.89;41.13
16544;BME280;8384;47.996;7.786;2023-08-08T12:41:01;98870.13;;;21.43;40.74
16544;BME280;8384;47.996;7.786;2023-08-08T12:43:27;98882.81;;;21.71;41.91
16544;BME280;8384;47.996;7.786;2023-08-08T12:45:52;98889.44;;;21.31;41.84
16544;BME280;8384;47.996;7.786;2023-08-08T12:48:18;98882.09;;;21.09;42.56
16544;BME280;8384;47.996;7.786;2023-08-08T12:50:43;98873.78;;;21.18;41.86
16544;BME280;8384;47.996;7.786;2023-08-08T12:53:08;98861.69;;;21.05;43.13
16544;BME280;8384;47.996;7.786;2023-08-08T12:55:33;98888.31;;;20.88;42.53
16544;BME280;8384;47.996;7.786;2023-08-08T12:57:59;98876.88;;;20.98;43.31
16544;BME280;8384;47.996;7.786;2023-08-08T13:00:24;98875.56;;;21.05;43.39
16544;BME280;8384;47.996;7.786;2023-08-08T13:02:49;98881.28;;;21.08;42.37
16544;BME280;8384;47.996;7.786;2023-08-08T13:05:15;98882.91;;;21.09;42.65
16544;BME280;8384;47.996;7.786;2023-08-08T13:07:40;98871.47;;;21.11;42.81
16544;BME280;8384;47.996;7.786;2023-08-08T13:10:06;98867.91;;;21.02;44.03
16544;BME280;8384;47.996;7.786;2023-08-08T13:12:31;98865.91;;;21.11;44.51